createdAt,value
2023-01-02T00:00:51.589Z,46.78
2023-01-02T00:03:18.308Z,41.08
2023-01-02T00:05:44.912Z,61.95
2023-01-02T00:08:11.354Z,50.55
2023-01-02T00:10:37.782Z,58.80
2023-01-02T00:13:04.322Z,37.67
2023-01-02T00:15:30.760Z,37.72
2023-01-02T00:17:57.126Z,48.13
2023-01-02T00:20:23.545Z,59.85
2023-01-02T00:22:50.293Z,50.92
2023-01-02T00:25:16.692Z,56.33
2023-01-02T00:27:43.086Z,51.33
2023-01-02T00:30:10.316Z,36.78
2023-01-02T00:32:36.718Z,35.38
2023-01-02T00:35:03.208Z,45.95
2023-01-02T00:37:29.588Z,51.70
2023-01-02T00:39:56.000Z,36.08
2023-01-02T00:42:22.489Z,36.05
2023-01-02T00:44:48.877Z,35.20
2023-01-02T00:47:15.358Z,32.35
2023-01-02T00:49:41.880Z,37.92
2023-01-02T00:52:08.367Z,33.63
2023-01-02T00:54:34.773Z,53.72
2023-01-02T00:57:01.235Z,36.88
2023-01-02T00:59:27.653Z,35.08
2023-01-02T01:01:54.144Z,32.33
2023-01-02T01:04:20.578Z,43.63
2023-01-02T01:06:46.952Z,51.03
2023-01-02T01:09:13.613Z,49.80
2023-01-02T01:11:40.000Z,38.72
2023-01-02T01:14:06.412Z,35.28
2023-01-02T01:16:32.907Z,35.50
2023-01-02T01:18:59.347Z,34.50
2023-01-02T01:21:25.814Z,34.70
2023-01-02T01:23:54.631Z,35.58
2023-01-02T01:26:21.821Z,36.00
2023-01-02T01:28:48.488Z,35.17
2023-01-02T01:31:16.278Z,40.15
2023-01-02T01:33:43.961Z,37.47
2023-01-02T01:36:18.761Z,34.13
2023-01-02T01:38:46.586Z,33.97
2023-01-02T01:41:15.871Z,34.38
2023-01-02T01:43:50.133Z,35.42
2023-01-02T01:46:41.418Z,35.60
2023-01-02T01:49:15.483Z,35.03
2023-01-02T01:51:54.954Z,34.83
2023-01-02T01:54:28.058Z,36.25
2023-01-02T01:57:00.107Z,37.67
2023-01-02T01:59:27.421Z,34.58
2023-01-02T02:01:54.286Z,38.92
2023-01-02T02:04:24.915Z,39.53
2023-01-02T02:06:52.106Z,38.33
2023-01-02T02:09:35.640Z,36.30
2023-01-02T02:12:04.159Z,33.55
2023-01-02T02:14:30.781Z,34.13
2023-01-02T02:17:04.553Z,35.75
2023-01-02T02:19:52.338Z,36.10
2023-01-02T02:22:41.989Z,39.15
2023-01-02T02:25:36.906Z,37.97
2023-01-02T02:28:50.212Z,39.28
2023-01-02T02:31:42.387Z,40.47
2023-01-02T02:34:27.042Z,36.90
2023-01-02T02:37:15.563Z,41.90
2023-01-02T02:40:03.602Z,39.05
2023-01-02T02:43:09.213Z,38.55
2023-01-02T02:45:54.354Z,37.85
2023-01-02T02:48:56.233Z,43.30
2023-01-02T02:54:12.485Z,37.00
2023-01-02T02:56:40.499Z,34.60
2023-01-02T02:59:07.848Z,35.92
2023-01-02T03:01:35.968Z,36.60
2023-01-02T03:04:02.425Z,37.10
2023-01-02T03:06:42.143Z,38.35
2023-01-02T03:09:37.039Z,33.85
2023-01-02T03:12:38.628Z,36.65
2023-01-02T03:15:13.661Z,36.42
2023-01-02T03:17:45.650Z,38.13
2023-01-02T03:20:16.117Z,34.67
2023-01-02T03:22:48.586Z,36.08
2023-01-02T03:25:16.995Z,33.38
2023-01-02T03:27:48.378Z,36.45
2023-01-02T03:32:59.957Z,35.40
2023-01-02T03:35:32.824Z,37.70
2023-01-02T03:37:59.779Z,37.90
2023-01-02T03:40:37.584Z,36.97
2023-01-02T03:43:29.021Z,36.20
2023-01-02T03:46:07.660Z,33.85
2023-01-02T03:48:42.574Z,34.50
2023-01-02T03:51:09.032Z,39.08
2023-01-02T03:53:39.167Z,38.35
2023-01-02T03:56:24.125Z,39.05
2023-01-02T03:58:58.327Z,35.75
2023-01-02T04:01:37.798Z,38.10
2023-01-02T04:04:17.402Z,38.83
2023-01-02T04:06:49.807Z,39.97
2023-01-02T04:09:22.874Z,39.28
2023-01-02T04:11:55.786Z,38.08
2023-01-02T04:14:31.486Z,38.22
2023-01-02T04:17:01.122Z,36.05
2023-01-02T04:19:34.406Z,40.08
2023-01-02T04:22:06.509Z,40.10
2023-01-02T04:24:38.588Z,41.88
2023-01-02T04:27:18.475Z,35.97
2023-01-02T04:29:44.920Z,36.58
2023-01-02T04:32:19.180Z,41.05
2023-01-02T04:34:47.693Z,38.95
2023-01-02T04:37:39.245Z,38.53
2023-01-02T04:40:12.434Z,40.65
2023-01-02T04:42:39.130Z,40.70
2023-01-02T04:45:06.115Z,39.45
2023-01-02T04:47:32.538Z,40.78
2023-01-02T04:49:58.947Z,38.50
2023-01-02T04:52:25.358Z,39.80
2023-01-02T04:54:51.754Z,39.58
2023-01-02T04:57:18.158Z,40.22
2023-01-02T04:59:44.637Z,37.67
2023-01-02T05:02:11.170Z,41.65
2023-01-02T05:04:37.674Z,39.40
2023-01-02T05:07:04.779Z,40.78
2023-01-02T05:09:31.205Z,36.42
2023-01-02T05:11:57.635Z,36.75
2023-01-02T05:14:24.424Z,36.97
2023-01-02T05:16:50.882Z,39.35
2023-01-02T05:19:17.321Z,40.35
2023-01-02T05:22:02.222Z,38.13
2023-01-02T05:24:28.619Z,36.38
2023-01-02T05:26:55.076Z,41.33
2023-01-02T05:29:21.538Z,41.80
2023-01-02T05:31:47.976Z,39.10
2023-01-02T05:34:15.568Z,39.92
2023-01-02T05:36:42.393Z,40.25
2023-01-02T05:39:12.012Z,39.17
2023-01-02T05:41:39.320Z,38.97
2023-01-02T05:44:08.569Z,47.60
2023-01-02T05:46:36.175Z,49.83
2023-01-02T05:49:10.728Z,49.13
2023-01-02T05:51:37.616Z,75.07
2023-01-02T05:54:04.570Z,38.95
2023-01-02T05:56:31.182Z,38.97
2023-01-02T05:58:58.018Z,39.00
2023-01-02T06:01:29.397Z,37.10
2023-01-02T06:06:29.365Z,49.75
2023-01-02T06:08:55.788Z,53.42
2023-01-02T06:11:22.290Z,57.42
2023-01-02T06:13:48.704Z,42.20
2023-01-02T06:16:15.123Z,107.75
2023-01-02T06:18:41.649Z,51.42
2023-01-02T06:21:14.580Z,39.53
2023-01-02T06:23:41.613Z,43.08
2023-01-02T06:26:12.443Z,47.78
2023-01-02T06:28:39.586Z,45.38
2023-01-02T06:31:12.555Z,45.85
2023-01-02T06:33:39.738Z,53.90
2023-01-02T06:36:12.168Z,64.25
2023-01-02T06:38:38.882Z,68.88
2023-01-02T06:41:06.982Z,57.35
2023-01-02T06:43:34.228Z,69.72
2023-01-02T06:46:02.433Z,48.13
2023-01-02T06:48:28.923Z,44.40
2023-01-02T06:50:55.325Z,45.53
2023-01-02T06:53:21.771Z,37.45
2023-01-02T06:56:07.352Z,58.63
2023-01-02T06:58:35.712Z,60.90
2023-01-02T07:01:09.052Z,65.78
2023-01-02T07:03:35.857Z,68.93
2023-01-02T07:06:11.661Z,48.30
2023-01-02T07:08:38.844Z,42.53
2023-01-02T07:11:13.644Z,37.65
2023-01-02T07:13:41.720Z,42.92
2023-01-02T07:16:10.166Z,43.53
2023-01-02T07:18:37.409Z,41.58
2023-01-02T07:21:05.612Z,47.42
2023-01-02T07:23:32.038Z,44.58
2023-01-02T07:26:00.395Z,45.40
2023-01-02T07:28:28.514Z,51.40
2023-01-02T07:31:01.491Z,55.17
2023-01-02T07:33:29.465Z,58.35
2023-01-02T07:36:04.582Z,50.67
2023-01-02T07:38:31.631Z,45.72
2023-01-02T07:40:58.259Z,40.50
2023-01-02T07:43:24.943Z,38.88
2023-01-02T07:45:51.402Z,40.78
2023-01-02T07:48:18.658Z,42.88
2023-01-02T07:50:45.644Z,45.80
2023-01-02T07:53:12.446Z,42.88
2023-01-02T07:55:38.868Z,45.88
2023-01-02T07:58:05.304Z,55.40
2023-01-02T08:00:31.718Z,75.38
2023-01-02T08:02:58.115Z,57.75
2023-01-02T08:05:24.538Z,57.72
2023-01-02T08:07:50.961Z,47.35
2023-01-02T08:10:17.449Z,43.40
2023-01-02T08:12:43.899Z,37.47
2023-01-02T08:15:10.802Z,40.35
2023-01-02T08:17:37.233Z,41.50
2023-01-02T08:20:07.991Z,125.70
2023-01-02T08:22:35.347Z,50.30
2023-01-02T08:25:02.022Z,43.95
2023-01-02T08:27:28.639Z,41.50
2023-01-02T08:29:55.161Z,44.15
2023-01-02T08:32:21.702Z,43.50
2023-01-02T08:34:48.152Z,113.57
2023-01-02T08:37:14.806Z,135.10
2023-01-02T08:39:41.210Z,60.95
2023-01-02T08:42:08.412Z,49.85
2023-01-02T08:44:37.863Z,40.70
2023-01-02T08:47:05.269Z,40.30
2023-01-02T08:49:31.737Z,38.05
2023-01-02T08:51:58.237Z,41.95
2023-01-02T08:54:24.669Z,41.38
2023-01-02T08:56:51.173Z,42.35
2023-01-02T08:59:17.712Z,39.13
2023-01-02T09:01:44.302Z,37.72
2023-01-02T09:04:12.896Z,36.42
2023-01-02T09:06:40.252Z,38.10
2023-01-02T09:09:11.498Z,41.17
2023-01-02T09:11:44.039Z,46.10
2023-01-02T09:16:36.765Z,38.33
2023-01-02T09:19:03.478Z,40.60
2023-01-02T09:21:29.994Z,46.78
2023-01-02T09:23:57.093Z,44.42
2023-01-02T09:26:24.189Z,41.67
2023-01-02T09:28:51.060Z,43.65
2023-01-02T09:31:22.022Z,41.63
2023-01-02T09:33:48.524Z,42.45
2023-01-02T09:36:18.582Z,42.45
2023-01-02T09:38:50.929Z,41.13
2023-01-02T09:41:42.715Z,42.50
2023-01-02T09:44:33.393Z,41.40
2023-01-02T09:47:05.869Z,43.05
2023-01-02T09:49:53.986Z,39.33
2023-01-02T09:52:25.779Z,41.97
2023-01-02T09:54:52.316Z,43.22
2023-01-02T09:57:21.514Z,43.35
2023-01-02T10:00:16.932Z,69.25
2023-01-02T10:03:11.410Z,42.80
2023-01-02T10:05:41.125Z,43.05
2023-01-02T10:08:13.997Z,40.70
2023-01-02T10:10:46.951Z,40.72
2023-01-02T10:14:16.776Z,41.35
2023-01-02T10:16:27.280Z,51.78
2023-01-02T10:18:55.960Z,46.53
2023-01-02T10:21:26.506Z,41.33
2023-01-02T10:24:04.769Z,34.57
2023-01-02T10:26:45.442Z,36.50
2023-01-02T10:29:40.197Z,33.93
2023-01-02T10:32:23.040Z,36.97
2023-01-02T10:35:07.509Z,35.80
2023-01-02T10:37:35.386Z,43.10
2023-01-02T10:40:02.072Z,33.28
2023-01-02T10:42:31.562Z,32.60
2023-01-02T10:44:58.070Z,35.25
2023-01-02T10:47:35.821Z,36.00
2023-01-02T10:50:08.854Z,42.60
2023-01-02T10:52:48.907Z,58.45
2023-01-02T10:55:30.943Z,82.07
2023-01-02T10:58:06.323Z,57.67
2023-01-02T11:00:37.231Z,44.90
2023-01-02T11:03:14.852Z,40.33
2023-01-02T11:05:53.300Z,36.53
2023-01-02T11:08:22.692Z,46.83
2023-01-02T11:10:50.914Z,35.65
2023-01-02T11:13:21.736Z,40.40
2023-01-02T11:15:49.977Z,33.78
2023-01-02T11:18:24.612Z,40.58
2023-01-02T11:20:54.812Z,33.83
2023-01-02T11:23:24.600Z,33.10
2023-01-02T11:25:52.743Z,32.25
2023-01-02T11:28:26.180Z,33.88
2023-01-02T11:30:55.366Z,42.58
2023-01-02T11:33:24.689Z,34.20
2023-01-02T11:36:13.057Z,30.45
2023-01-02T11:38:53.947Z,25.80
2023-01-02T11:42:14.584Z,25.98
2023-01-02T11:44:59.885Z,35.33
2023-01-02T11:47:34.353Z,30.33
2023-01-02T11:50:02.223Z,29.92
2023-01-02T11:52:46.182Z,31.20
2023-01-02T11:55:35.725Z,31.40
2023-01-02T11:58:14.647Z,28.67
2023-01-02T12:00:43.316Z,35.40
2023-01-02T12:03:18.825Z,30.67
2023-01-02T12:06:07.838Z,35.22
2023-01-02T12:09:06.982Z,30.92
2023-01-02T12:11:43.413Z,29.30
2023-01-02T12:14:15.925Z,32.35
2023-01-02T12:16:54.848Z,33.22
2023-01-02T12:19:21.221Z,30.90
2023-01-02T12:21:58.959Z,31.10
2023-01-02T12:24:43.598Z,32.30
2023-01-02T12:27:38.525Z,29.05
2023-01-02T12:30:18.764Z,28.55
2023-01-02T12:33:00.579Z,29.13
2023-01-02T12:35:55.398Z,30.88
2023-01-02T12:38:34.841Z,31.60
2023-01-02T12:41:17.911Z,26.48
2023-01-02T12:44:12.325Z,25.90
2023-01-02T12:47:02.043Z,28.65
2023-01-02T12:49:51.437Z,25.63
2023-01-02T12:52:17.782Z,22.83
2023-01-02T12:54:56.420Z,25.98
2023-01-02T12:57:29.079Z,22.33
2023-01-02T13:00:24.416Z,21.30
2023-01-02T13:03:18.682Z,23.48
2023-01-02T13:05:53.847Z,19.65
2023-01-02T13:08:27.017Z,25.23
2023-01-02T13:10:56.111Z,21.20
2023-01-02T13:13:27.417Z,21.40
2023-01-02T13:16:03.090Z,23.45
2023-01-02T13:19:00.081Z,24.50
2023-01-02T13:21:35.072Z,25.67
2023-01-02T13:24:02.224Z,24.85
2023-01-02T13:26:31.557Z,21.58
2023-01-02T13:29:21.591Z,26.10
2023-01-02T13:31:51.826Z,21.23
2023-01-02T13:34:24.134Z,20.92
2023-01-02T13:36:59.400Z,21.08
2023-01-02T13:39:32.335Z,23.50
2023-01-02T13:42:19.950Z,18.58
2023-01-02T13:44:50.944Z,19.83
2023-01-02T13:47:25.675Z,19.88
2023-01-02T13:50:11.804Z,20.17
2023-01-02T13:52:40.570Z,20.35
2023-01-02T13:55:31.264Z,23.48
2023-01-02T13:58:18.777Z,23.27
2023-01-02T14:00:55.559Z,22.67
2023-01-02T14:03:28.180Z,22.67
2023-01-02T14:05:59.567Z,23.70
2023-01-02T14:08:38.298Z,23.92
2023-01-02T14:11:15.242Z,20.90
2023-01-02T14:13:53.889Z,22.38
2023-01-02T14:16:23.417Z,24.33
2023-01-02T14:19:15.280Z,22.65
2023-01-02T14:21:52.993Z,22.63
2023-01-02T14:24:40.290Z,22.67
2023-01-02T14:27:23.103Z,19.23
2023-01-02T14:29:53.896Z,20.88
2023-01-02T14:32:45.575Z,23.67
2023-01-02T14:37:48.249Z,23.60
2023-01-02T14:40:23.647Z,30.40
2023-01-02T14:43:26.644Z,34.38
2023-01-02T14:46:02.381Z,23.50
2023-01-02T14:48:34.569Z,26.50
2023-01-02T14:51:12.399Z,24.02
2023-01-02T14:53:50.544Z,21.73
2023-01-02T14:56:22.724Z,24.23
2023-01-02T14:58:50.434Z,24.88
2023-01-02T15:01:42.669Z,25.33
2023-01-02T15:04:26.188Z,26.15
2023-01-02T15:07:10.367Z,35.72
2023-01-02T15:09:53.021Z,46.42
2023-01-02T15:12:50.095Z,48.10
2023-01-02T15:15:20.171Z,49.00
2023-01-02T15:17:49.064Z,38.70
2023-01-02T15:20:21.590Z,36.88
2023-01-02T15:22:48.763Z,25.88
2023-01-02T15:25:41.191Z,30.95
2023-01-02T15:28:30.047Z,28.30
2023-01-02T15:31:02.657Z,36.63
2023-01-02T15:33:33.826Z,38.03
2023-01-02T15:36:14.345Z,42.70
2023-01-02T15:38:41.531Z,37.85
2023-01-02T15:41:15.435Z,32.75
2023-01-02T15:44:00.222Z,47.17
2023-01-02T15:46:27.036Z,31.30
2023-01-02T15:48:54.111Z,23.35
2023-01-02T15:51:41.141Z,22.10
2023-01-02T15:54:13.631Z,24.80
2023-01-02T15:56:41.064Z,21.70
2023-01-02T15:59:28.328Z,22.25
2023-01-02T16:01:55.190Z,23.35
2023-01-02T16:04:27.475Z,21.58
2023-01-02T16:06:55.968Z,22.48
2023-01-02T16:09:33.537Z,22.50
2023-01-02T16:12:02.792Z,23.83
2023-01-02T16:14:37.128Z,21.08
2023-01-02T16:17:07.426Z,22.70
2023-01-02T16:19:39.931Z,22.50
2023-01-02T16:22:25.350Z,24.33
2023-01-02T16:25:31.499Z,23.90
2023-01-02T16:28:34.218Z,24.65
2023-01-02T16:31:15.352Z,23.13
2023-01-02T16:33:43.358Z,30.23
2023-01-02T16:36:24.450Z,27.52
2023-01-02T16:38:55.761Z,24.52
2023-01-02T16:43:53.814Z,24.50
2023-01-02T16:46:20.353Z,24.65
2023-01-02T16:48:47.033Z,24.58
2023-01-02T16:51:15.279Z,29.88
2023-01-02T16:53:43.223Z,28.27
2023-01-02T16:56:11.744Z,21.65
2023-01-02T16:58:39.291Z,23.30
2023-01-02T17:01:11.011Z,26.30
2023-01-02T17:03:39.817Z,28.02
2023-01-02T17:06:11.259Z,24.90
2023-01-02T17:11:04.240Z,28.05
2023-01-02T17:13:30.816Z,27.92
2023-01-02T17:15:57.532Z,25.70
2023-01-02T17:18:24.883Z,26.08
2023-01-02T17:20:51.826Z,25.42
2023-01-02T17:23:19.470Z,23.55
2023-01-02T17:25:46.841Z,24.73
2023-01-02T17:28:14.058Z,30.88
2023-01-02T17:30:44.727Z,30.05
2023-01-02T17:33:11.832Z,29.45
2023-01-02T17:35:38.555Z,33.63
2023-01-02T17:38:05.028Z,31.13
2023-01-02T17:40:31.516Z,28.15
2023-01-02T17:42:58.313Z,31.50
2023-01-02T17:45:25.076Z,27.75
2023-01-02T17:48:10.149Z,25.00
2023-01-02T17:50:37.962Z,26.25
2023-01-02T17:53:04.380Z,25.35
2023-01-02T17:55:30.794Z,29.50
2023-01-02T17:57:57.261Z,27.00
2023-01-02T18:00:23.981Z,28.40
2023-01-02T18:02:52.615Z,25.63
2023-01-02T18:05:19.257Z,33.13
2023-01-02T18:07:45.651Z,41.78
2023-01-02T18:10:16.022Z,57.58
2023-01-02T18:12:45.915Z,33.88
2023-01-02T18:15:14.689Z,32.42
2023-01-02T18:17:41.384Z,28.95
2023-01-02T18:20:20.143Z,26.65
2023-01-02T18:22:49.972Z,29.45
2023-01-02T18:25:24.872Z,29.63
2023-01-02T18:27:52.688Z,29.63
2023-01-02T18:30:22.472Z,31.25
2023-01-02T18:32:57.525Z,28.65
2023-01-02T18:38:44.451Z,30.02
2023-01-02T18:41:25.727Z,27.65
2023-01-02T18:43:57.549Z,43.42
2023-01-02T18:47:03.053Z,36.95
2023-01-02T18:49:21.365Z,27.52
2023-01-02T18:51:49.016Z,29.67
2023-01-02T18:54:24.338Z,25.40
2023-01-02T18:56:50.848Z,26.75
2023-01-02T18:59:30.543Z,26.23
2023-01-02T19:02:02.333Z,26.42
2023-01-02T19:04:36.607Z,21.67
2023-01-02T19:07:26.455Z,25.30
2023-01-02T19:10:36.584Z,26.38
2023-01-02T19:13:08.135Z,30.83
2023-01-02T19:15:58.039Z,28.38
2023-01-02T19:18:29.933Z,26.88
2023-01-02T19:21:10.359Z,30.40
2023-01-02T19:23:45.858Z,32.83
2023-01-02T19:26:37.169Z,28.88
2023-01-02T19:29:09.929Z,27.35
2023-01-02T19:31:43.761Z,31.02
2023-01-02T19:34:40.883Z,26.25
2023-01-02T19:37:13.172Z,25.73
2023-01-02T19:39:49.906Z,26.95
2023-01-02T19:42:19.408Z,27.67
2023-01-02T19:45:01.369Z,29.42
2023-01-02T19:47:31.481Z,29.27
2023-01-02T19:49:58.612Z,26.30
2023-01-02T19:52:26.312Z,26.98
2023-01-02T19:54:52.963Z,26.02
2023-01-02T19:57:21.353Z,26.73
2023-01-02T19:59:50.059Z,24.60
2023-01-02T20:02:19.369Z,27.73
2023-01-02T20:04:47.865Z,30.33
2023-01-02T20:07:14.346Z,29.38
2023-01-02T20:09:40.822Z,27.42
2023-01-02T20:12:26.153Z,29.33
2023-01-02T20:14:52.769Z,29.20
2023-01-02T20:17:20.303Z,30.80
2023-01-02T20:19:46.780Z,30.52
2023-01-02T20:22:13.170Z,27.67
2023-01-02T20:24:39.601Z,29.08
2023-01-02T20:27:06.423Z,28.65
2023-01-02T20:29:33.294Z,30.20
2023-01-02T20:31:59.978Z,26.63
2023-01-02T20:34:26.485Z,29.58
2023-01-02T20:36:53.791Z,28.25
2023-01-02T20:39:20.242Z,32.60
2023-01-02T20:41:46.724Z,30.77
2023-01-02T20:44:13.974Z,33.17
2023-01-02T20:46:41.368Z,30.23
2023-01-02T20:49:08.657Z,28.95
2023-01-02T20:51:35.628Z,29.45
2023-01-02T20:54:05.956Z,30.08
2023-01-02T20:56:33.259Z,30.25
2023-01-02T20:58:59.748Z,30.92
2023-01-02T21:01:27.408Z,28.05
2023-01-02T21:03:54.051Z,28.85
2023-01-02T21:06:20.737Z,30.73
2023-01-02T21:08:47.165Z,31.15
2023-01-02T21:11:13.607Z,31.75
2023-01-02T21:13:40.065Z,29.35
2023-01-02T21:16:06.583Z,30.95
2023-01-02T21:18:35.869Z,33.90
2023-01-02T21:21:07.897Z,32.95
2023-01-02T21:23:36.707Z,33.55
2023-01-02T21:26:05.260Z,35.03
2023-01-02T21:28:32.343Z,35.55
2023-01-02T21:30:59.003Z,34.03
2023-01-02T21:33:27.344Z,38.13
2023-01-02T21:35:56.852Z,35.22
2023-01-02T21:38:24.092Z,33.90
2023-01-02T21:40:52.424Z,33.95
2023-01-02T21:43:20.313Z,34.97
2023-01-02T21:45:46.808Z,30.48
2023-01-02T21:48:13.516Z,33.38
2023-01-02T21:50:40.388Z,35.13
2023-01-02T21:53:06.854Z,30.42
2023-01-02T21:55:33.444Z,34.40
2023-01-02T21:58:12.803Z,36.83
2023-01-02T22:00:40.179Z,34.58
2023-01-02T22:03:10.084Z,34.15
2023-01-02T22:05:36.535Z,35.75
2023-01-02T22:08:02.988Z,35.65
2023-01-02T22:10:29.675Z,38.53
2023-01-02T22:12:56.108Z,39.78
2023-01-02T22:15:22.970Z,40.72
2023-01-02T22:17:49.470Z,36.63
2023-01-02T22:20:16.411Z,35.58
2023-01-02T22:22:42.943Z,33.63
2023-01-02T22:25:10.468Z,34.65
2023-01-02T22:27:37.513Z,41.42
2023-01-02T22:30:20.964Z,36.08
2023-01-02T22:32:51.386Z,45.58
2023-01-02T22:35:18.101Z,40.60
2023-01-02T22:37:44.561Z,40.28
2023-01-02T22:40:11.526Z,45.70
2023-01-02T22:43:05.232Z,41.13
2023-01-02T22:45:48.118Z,44.40
2023-01-02T22:48:21.929Z,47.25
2023-01-02T22:50:51.574Z,38.05
2023-01-02T22:53:23.060Z,45.63
2023-01-02T22:55:50.257Z,47.53
2023-01-02T22:58:18.283Z,48.80
2023-01-02T23:00:47.567Z,50.20
2023-01-02T23:03:18.786Z,60.22
2023-01-02T23:05:45.224Z,61.17
2023-01-02T23:08:11.716Z,47.25
2023-01-02T23:10:38.166Z,47.95
2023-01-02T23:13:04.642Z,37.75
2023-01-02T23:15:31.133Z,34.60
2023-01-02T23:18:16.248Z,34.00
2023-01-02T23:20:42.643Z,32.85
2023-01-02T23:23:09.088Z,31.45
2023-01-02T23:25:40.426Z,31.60
2023-01-02T23:30:33.199Z,32.08
2023-01-02T23:32:59.614Z,32.03
2023-01-02T23:35:26.090Z,31.75
2023-01-02T23:37:52.503Z,31.85
2023-01-02T23:40:18.943Z,31.50
2023-01-02T23:42:45.344Z,30.10
2023-01-02T23:45:11.827Z,32.03
2023-01-02T23:47:38.219Z,32.15
2023-01-02T23:50:06.500Z,31.48
2023-01-02T23:52:32.966Z,32.03
2023-01-02T23:54:59.351Z,30.73
2023-01-02T23:57:25.781Z,33.50
2023-01-02T23:59:52.189Z,30.48
